Historyczne dane pomiarowe

Dodano dane terminowe – wersja testowa.

Dane z okresu 1951-2019

Wersja bazy: 1.34 [2019-03-16, lista zmian], aktualizacja planowana na 2019-04-15

Dane meteo z obszaru Polski uzyskane na podstawie danych udostępnionych przez Instytut Meteorologii i Gospodarki Wodnej – Państwowy Instytut Badawczy.

 

Wybierz Datę:    

       

TemperaturaWilgotnośćWiatrCiśnienieOpadyŚniegCzas trwania zjawisk
 Stacja t tx tn tng RH VA  wxwx mslp ppp RRR   cm mm wxwxwxwxwxwxwx
1956-11-09 -7.5 -2.0-11.4-14.1 86.3- 3.0 0.3---- 0.0-- 1---------
1956-11-08 -6.3 -1.7 -8.4-11.9 88.5- 2.3 0.7---- 0.1-- 1---------
1956-11-07 -1.1 1.6 -3.0 -2.4 86.0- 5.0 2.7---- 0.2-- 2---------
1956-11-06 0.9 5.0 -1.5 -2.3 83.3- 4.3 4.0---- 1.9------------
1956-11-05 2.8 5.1 -4.5 -6.3 94.8- 8.0 3.3---- 2.3------------
1956-11-04 -1.2 2.4 -3.2 -2.7 85.5- 4.7 1.3---- 0.0-- 1---------
1956-11-03 -1.4 1.4 -7.7 -9.2 90.8- 7.3 0.3---- 1.2------------
1956-11-02 -2.8 1.0 -5.7 -8.6 93.3- 5.0 0.0---- 0.8------------
1956-11-01 -3.2 3.9-10.5-11.8 86.5- 4.3 1.0---- 0.0------------
1956-10-31 -4.8 -0.5 -6.4 -3.8 88.5- 2.3 2.3---- 0.0------------
1956-10-30 1.5 5.6 -0.9 0.2 96.8- 8.0 2.3---- 0.0------------
1956-10-29 4.0 9.0 -0.1 -1.8 87.3- 6.0 1.0---- 0.0------------
1956-10-28 10.0 14.8 7.3 7.1 91.3- 8.0 1.7---- 6.0------------
1956-10-27 9.0 12.3 5.5 3.4 90.8- 6.0 1.7---- 1.8------------
1956-10-26 8.3 13.1 2.0 0.4 91.3- 7.3 1.7---- 0.0------------
1956-10-25 9.5 16.5 5.0 2.3 87.3- 0.0 2.0---- 0.0------------
1956-10-24 10.0 15.8 1.2 0.2 85.5- 4.3 1.3---- 0.0------------
1956-10-23 7.3 12.9 3.3 2.6 92.3- 5.0 1.7---- 0.0------------
1956-10-22 9.8 16.0 4.7 3.3 92.3- 4.0 1.7---- 0.0------------
1956-10-21 11.1 16.3 8.0 7.5 91.0- 6.7 1.0---- 0.0------------
1956-10-20 10.7 12.8 8.5 8.4 91.0- 8.0 1.0---- 0.0------------
1956-10-19 11.8 14.0 9.0 8.4 90.3- 7.3 2.3---- 0.1------------
1956-10-18 8.8 12.9 2.1 0.8 90.8- 7.0 2.7---- 1.1------------
1956-10-17 4.8 11.3 -2.0 -3.4 82.3- 2.7 2.3---- 0.0------------
1956-10-16 2.6 11.1 -4.5 -4.7 87.8- 0.0 0.3---- 0.0------------
1956-10-15 2.7 10.3 -1.0 -2.8 88.3- 0.7 1.3---- 0.0------------
1956-10-14 6.8 11.2 3.0 7.5 77.0- 3.7 8.3---- 0.0------------
1956-10-13 9.6 10.9 7.4 6.8 80.3- 7.7 7.7---- 2.8------------
1956-10-12 8.9 11.0 6.8 6.2 80.0- 6.0 3.7---- 0.0------------
1956-10-11 7.1 10.6 -1.4 -1.8 74.3- 5.7 3.0---- 0.0------------
1956-10-10 1.7 7.7 -1.0 -0.9 85.5- 2.7 2.7---- 0.0------------
1956-10-09 5.5 9.7 0.4 -0.9 90.0- 5.0 2.7---- 0.5------------
1956-10-08 3.0 8.8 0.6 -0.8 89.3- 5.3 1.7---- 0.0------------
1956-10-07 5.1 7.3 0.4 0.0 88.0- 5.3 6.0---- 2.6------------
1956-10-06 4.7 11.0 0.6 7.8 98.8- 8.0 4.0---- 28.2------------
1956-10-05 11.3 15.7 6.2 8.0 76.8- 6.3 3.3---- 3.8------------
1956-10-04 10.1 12.2 7.0 5.5 96.3- 7.7 2.0---- 5.6------------
1956-10-03 13.7 22.5 10.4 10.9 84.3- 6.0 2.7---- 0.2------------
1956-10-02 18.1 25.2 8.8- 68.0- 4.7 3.0---- 0.0------------
1956-10-01 14.7 23.8 5.9- 84.0- 3.7 2.0---- 0.0------------
1956-09-30 12.2 19.7 8.1 10.4 85.0- 3.0 1.0---- 0.0------------
1956-09-29 16.9 20.3 11.0 10.1 78.3- 7.0 3.0---- 0.0------------
1956-09-28 13.5 18.0 11.8 11.1 89.0- 4.7 2.0---- 0.0------------
1956-09-27 16.3 23.4 10.0 7.6 61.8- 6.3 2.7---- 2.1------------
1956-09-26 13.9 21.9 3.5 1.9 62.8- 0.0 2.3---- 0.0------------
1956-09-25 12.5 19.9 2.0 0.6 77.0- 2.7 2.0---- 0.0------------
1956-09-24 9.5 15.1 4.2 2.9 59.5- 0.0 4.0---- 0.0------------
1956-09-23 11.1 16.3 7.1 6.1 76.3- 3.3 3.7---- 0.0------------
1956-09-22 12.2 19.5 4.5 2.9 80.8- 0.0 1.3---- 0.0------------
1956-09-21 9.5 19.0 2.5 1.3 83.0- 0.0 0.3---- 0.0------------
1956-09-20 9.6 16.4 2.3 0.1 81.3- 7.0 1.3---- 0.0------------
1956-09-19 7.6 15.3 -0.4 -1.5 81.3- 2.0 1.3---- 0.0------------
1956-09-18 6.6 12.7 3.8 3.3 86.0- 6.0 1.7---- 0.0------------
1956-09-17 8.1 10.9 6.0 6.4 90.5- 7.3 2.0---- 1.6------------
1956-09-16 10.5 14.8 6.7 5.2 80.8- 6.3 2.3---- 1.3------------
1956-09-15 10.9 16.1 5.2 3.6 88.3- 6.0 2.7---- 0.0------------
1956-09-14 10.5 14.5 4.5 4.9 78.3- 5.3 2.7---- 0.0------------
1956-09-13 7.6 12.4 5.7 5.9 91.3- 5.0 3.0---- 2.9------------
1956-09-12 10.3 14.3 7.0 9.5 95.3- 6.0 2.7---- 10.8------------
1956-09-11 13.4 15.6 12.0 13.3 95.5- 8.0 3.3---- 0.7------------
288.2 ms

 

Źródłem pochodzenia danych jest Instytut Meteorologii i Gospodarki Wodnej – Państwowy Instytut Badawczy. Dane Instytutu Meteorologii i Gospodarki Wodnej – Państwowego Instytutu Badawczego zostały przetworzone.

Dane źródłowe można odnaleźć na stronie https://dane.imgw.pl